Time;durP1;ratioP1;P1;durP2;ratioP2;P2;SDS_P1;SDS_P2;PMS_P1;PMS_P2;Temp;Humidity;BMP_temperature;BMP_pressure;BME280_temperature;BME280_humidity;BME280_pressure;Samples;Min_cycle;Max_cycle;Signal;HPM_P1;HPM_P2
2023/07/31 12:05:04;;;;;;;3.17;1.83;;;32.70;99.90;;;;;;5025382;28;1335564;-54
2023/07/31 12:07:46;;;;;;;3.15;1.33;;;33.10;99.90;;;;;;5085788;28;20048;-54
2023/07/31 12:10:29;;;;;;;2.30;1.70;;;32.20;99.90;;;;;;5051022;28;20395;-57
2023/07/31 12:13:19;;;;;;;4.90;2.70;;;32.40;99.90;;;;;;5060462;28;20664;-57
2023/07/31 12:15:45;;;;;;;5.10;4.03;;;32.60;99.90;;;;;;5066713;28;20055;-53
2023/07/31 12:18:14;;;;;;;2.95;1.60;;;;;;;;;;5084762;28;20027;-56
2023/07/31 12:20:45;;;;;;;3.80;1.73;;;33.50;99.90;;;;;;5083326;28;20078;-54
2023/07/31 12:23:28;;;;;;;2.45;1.55;;;33.00;99.90;;;;;;5086813;28;20368;-56
2023/07/31 12:26:07;;;;;;;2.10;1.88;;;32.30;99.90;;;;;;5050617;28;20028;-56
2023/07/31 12:28:58;;;;;;;3.42;1.70;;;32.60;99.90;;;;;;5083569;28;20039;-56
2023/07/31 12:31:28;;;;;;;2.10;1.60;;;32.90;99.90;;;;;;5081613;28;20032;-55
2023/07/31 12:33:55;;;;;;;2.00;1.50;;;33.00;99.90;;;;;;5081539;28;20043;-55
2023/07/31 12:36:24;;;;;;;2.58;1.50;;;32.70;99.90;;;;;;5043697;28;20041;-52
2023/07/31 12:38:50;;;;;;;2.65;1.67;;;32.50;99.90;;;;;;5078058;28;20086;-54
2023/07/31 12:41:16;;;;;;;4.45;2.03;;;32.30;99.90;;;;;;5078988;28;20056;-57
2023/07/31 12:43:43;;;;;;;3.75;1.67;;;33.10;99.90;;;;;;5084176;28;20059;-52
2023/07/31 12:46:10;;;;;;;2.60;1.70;;;;;;;;;;5074740;28;20073;-55
2023/07/31 12:48:36;;;;;;;2.05;1.50;;;;;;;;;;5081740;28;20024;-54
2023/07/31 12:51:02;;;;;;;2.47;2.03;;;33.00;99.90;;;;;;5080109;28;20028;-54
2023/07/31 12:53:29;;;;;;;2.72;1.55;;;33.00;99.90;;;;;;5089911;28;20024;-54
2023/07/31 12:55:55;;;;;;;1.52;1.23;;;33.20;99.90;;;;;;5039730;28;20491;-52
2023/07/31 12:58:21;;;;;;;3.13;2.00;;;32.50;99.90;;;;;;5084447;28;20029;-52
2023/07/31 13:00:47;;;;;;;3.72;1.60;;;32.60;99.90;;;;;;5045222;28;20044;-54
2023/07/31 13:03:12;;;;;;;2.55;1.70;;;32.50;99.90;;;;;;5083315;28;20012;-53
2023/07/31 13:05:38;;;;;;;4.57;2.28;;;33.10;99.90;;;;;;5085850;28;20492;-54
2023/07/31 13:08:04;;;;;;;2.17;1.67;;;33.30;99.90;;;;;;5082723;28;20020;-54
2023/07/31 13:10:30;;;;;;;2.90;1.50;;;33.30;99.90;;;;;;5070417;28;20044;-52
2023/07/31 13:12:56;;;;;;;2.58;1.55;;;33.10;99.90;;;;;;5052158;28;20029;-53
2023/07/31 13:15:22;;;;;;;3.70;1.50;;;33.00;99.90;;;;;;5084466;28;20048;-52
2023/07/31 13:17:48;;;;;;;4.55;1.67;;;33.30;99.90;;;;;;5085448;28;20034;-52
2023/07/31 13:20:13;;;;;;;2.78;1.70;;;33.20;99.90;;;;;;5011665;28;20062;-51
2023/07/31 13:22:39;;;;;;;3.65;1.80;;;33.20;99.90;;;;;;5083270;28;20032;-53
2023/07/31 13:25:06;;;;;;;2.78;1.63;;;32.90;99.90;;;;;;5036370;28;20053;-53
2023/07/31 13:27:31;;;;;;;3.38;1.70;;;33.10;99.90;;;;;;5088757;28;20020;-52
2023/07/31 13:29:57;;;;;;;2.65;1.85;;;33.00;99.90;;;;;;5084532;28;20593;-54
2023/07/31 13:32:24;;;;;;;3.00;1.50;;;;;;;;;;5090030;28;20117;-53
2023/07/31 13:34:50;;;;;;;3.47;1.50;;;;;;;;;;5027479;28;20131;-53
2023/07/31 13:37:16;;;;;;;3.97;1.83;;;;;;;;;;5079813;28;20472;-54
2023/07/31 13:39:43;;;;;;;3.70;1.70;;;;;;;;;;5079342;28;20141;-52
2023/07/31 13:42:11;;;;;;;2.10;1.58;;;;;;;;;;5077648;28;20395;-52
2023/07/31 13:44:40;;;;;;;4.55;1.85;;;;;;;;;;5083193;28;20024;-54
2023/07/31 13:47:07;;;;;;;4.85;2.25;;;;;;;;;;5075302;28;20380;-54
2023/07/31 13:49:33;;;;;;;4.65;1.80;;;;;;;;;;5079086;28;20063;-54
2023/07/31 13:51:59;;;;;;;3.63;1.77;;;;;;;;;;5082699;28;20025;-54
2023/07/31 13:54:26;;;;;;;3.22;1.60;;;;;;;;;;4983316;28;20535;-53
2023/07/31 13:56:52;;;;;;;3.45;1.48;;;;;;;;;;4963588;28;20043;-52
2023/07/31 13:59:18;;;;;;;2.75;1.77;;;;;;;;;;4983190;28;20038;-52
2023/07/31 14:01:44;;;;;;;3.83;1.98;;;;;;;;;;4973964;28;20109;-54
2023/07/31 14:04:10;;;;;;;5.35;2.40;;;;;;;;;;4982442;28;20141;-52
2023/07/31 14:06:37;;;;;;;4.43;1.60;;;;;;;;;;4983548;28;20545;-52
2023/07/31 14:09:03;;;;;;;2.35;1.42;;;;;;;;;;4978544;28;20042;-53
2023/07/31 14:11:29;;;;;;;3.58;1.70;;;;;;;;;;4981287;28;20042;-53
2023/07/31 14:13:56;;;;;;;2.70;1.40;;;;;;;;;;4984387;28;20042;-53
2023/07/31 14:16:22;;;;;;;3.85;1.52;;;;;;;;;;4938752;28;20484;-53
2023/07/31 14:18:48;;;;;;;3.00;1.80;;;;;;;;;;4986758;28;20059;-52
2023/07/31 14:21:15;;;;;;;4.30;1.75;;;;;;;;;;4981188;28;20039;-53
2023/07/31 14:23:41;;;;;;;2.90;1.67;;;;;;;;;;4966218;28;20632;-52
2023/07/31 14:26:07;;;;;;;3.45;1.90;;;;;;;;;;5034697;28;20391;-53
2023/07/31 14:28:33;;;;;;;2.45;1.63;;;;;;;;;;5085883;28;20024;-52
2023/07/31 14:30:59;;;;;;;1.83;1.55;;;;;;;;;;5087678;28;20028;-52
2023/07/31 14:33:26;;;;;;;5.32;1.90;;;;;;;;;;5084737;28;20036;-53
2023/07/31 14:35:52;;;;;;;1.98;1.52;;;;;;;;;;5073834;28;20028;-54
2023/07/31 14:38:18;;;;;;;2.42;1.70;;;;;;;;;;5078434;28;20032;-52
2023/07/31 14:40:45;;;;;;;4.35;1.90;;;;;;;;;;5090463;28;20036;-53
2023/07/31 14:43:11;;;;;;;3.33;1.70;;;;;;;;;;5086245;28;20528;-55
2023/07/31 14:45:37;;;;;;;3.35;1.70;;;;;;;;;;5082208;28;20032;-53
2023/07/31 14:48:03;;;;;;;2.65;1.67;;;;;;;;;;5078278;28;20024;-54
2023/07/31 14:50:29;;;;;;;3.45;1.67;;;;;;;;;;5083900;28;20028;-52
2023/07/31 14:52:55;;;;;;;3.45;1.67;;;;;;;;;;5090247;28;20711;-54
2023/07/31 14:55:21;;;;;;;3.78;1.83;;;;;;;;;;5087228;28;20036;-53
2023/07/31 14:57:48;;;;;;;4.32;1.98;;;;;;;;;;5080731;28;20539;-54
2023/07/31 15:00:14;;;;;;;3.78;1.50;;;;;;;;;;5082962;28;20145;-52
2023/07/31 15:02:41;;;;;;;4.50;2.15;;;;;;;;;;5064660;28;20036;-53
2023/07/31 15:05:07;;;;;;;3.45;2.08;;;;;;;;;;5080377;28;20519;-52
2023/07/31 15:07:34;;;;;;;3.08;1.40;;;;;;;;;;5077606;28;20060;-54
2023/07/31 15:10:00;;;;;;;2.05;1.75;;;;;;;;;;5086690;28;20078;-55
2023/07/31 15:12:27;;;;;;;3.28;1.60;;;32.20;99.90;;;;;;5084380;28;20034;-55
2023/07/31 15:14:53;;;;;;;3.45;2.20;;;32.10;99.90;;;;;;5077027;28;20040;-54
2023/07/31 15:17:19;;;;;;;2.85;1.80;;;32.20;99.90;;;;;;5076587;28;20451;-54
2023/07/31 15:19:45;;;;;;;4.95;1.70;;;32.00;99.90;;;;;;5081916;28;20107;-52
2023/07/31 15:22:11;;;;;;;4.55;1.85;;;32.30;99.90;;;;;;5057707;28;20106;-52
2023/07/31 15:24:37;;;;;;;4.55;1.88;;;32.60;99.90;;;;;;5079789;28;20475;-52
2023/07/31 15:27:03;;;;;;;3.28;2.00;;;32.80;99.90;;;;;;5079663;28;20048;-52
2023/07/31 15:29:29;;;;;;;3.13;2.05;;;33.00;99.90;;;;;;5057784;28;20044;-53
2023/07/31 15:31:55;;;;;;;4.30;3.50;;;32.60;99.90;;;;;;5043485;28;20044;-55
2023/07/31 15:34:21;;;;;;;5.13;2.17;;;32.40;99.90;;;;;;5081856;28;20028;-54
2023/07/31 15:36:47;;;;;;;3.10;1.75;;;32.00;99.90;;;;;;5087809;28;20036;-54
2023/07/31 15:39:13;;;;;;;3.17;1.80;;;32.00;99.90;;;;;;5083006;28;20028;-54
2023/07/31 15:41:40;;;;;;;3.42;1.77;;;31.90;99.90;;;;;;5083665;28;20431;-53
2023/07/31 15:44:06;;;;;;;3.58;1.48;;;32.00;99.90;;;;;;5076489;28;20029;-54
2023/07/31 15:46:32;;;;;;;2.22;1.67;;;32.00;99.90;;;;;;5076054;28;20372;-52
2023/07/31 15:48:58;;;;;;;2.08;1.77;;;;;;;;;;5080520;28;20059;-54
2023/07/31 15:51:24;;;;;;;5.57;2.25;;;31.30;99.90;;;;;;5078289;28;20085;-54
2023/07/31 15:53:51;;;;;;;6.88;2.40;;;;;;;;;;5049867;28;20476;-54
2023/07/31 15:56:17;;;;;;;1.60;1.50;;;;;;;;;;5077965;28;20379;-56
2023/07/31 15:58:43;;;;;;;2.03;1.40;;;;;;;;;;5083426;28;20074;-55
2023/07/31 16:01:10;;;;;;;5.60;1.77;;;;;;;;;;5087835;28;20024;-53
2023/07/31 16:03:36;;;;;;;3.72;1.50;;;;;;;;;;5080575;28;20020;-52
2023/07/31 16:06:01;;;;;;;2.75;1.67;;;30.70;99.90;;;;;;5079371;28;20155;-54
2023/07/31 16:08:27;;;;;;;2.70;1.70;;;;;;;;;;5091043;28;20118;-54
2023/07/31 16:10:55;;;;;;;5.45;2.67;;;;;;;;;;5070425;28;20047;-54
2023/07/31 16:13:21;;;;;;;3.97;2.40;;;30.10;99.90;;;;;;5084994;28;20033;-52
2023/07/31 16:15:47;;;;;;;2.95;1.80;;;30.20;99.90;;;;;;5088748;28;20032;-52
2023/07/31 16:18:13;;;;;;;2.30;1.55;;;30.20;99.90;;;;;;5086011;28;20043;-52
2023/07/31 16:20:38;;;;;;;3.30;2.00;;;30.20;99.90;;;;;;5086747;28;20058;-53
2023/07/31 16:23:06;;;;;;;5.18;2.13;;;30.00;99.90;;;;;;5086377;28;20082;-54
2023/07/31 16:25:32;;;;;;;5.28;2.10;;;30.10;99.90;;;;;;5088598;28;20032;-54
2023/07/31 16:27:58;;;;;;;2.10;1.73;;;30.20;99.90;;;;;;5080027;28;20021;-53
2023/07/31 16:30:24;;;;;;;2.47;1.90;;;30.20;99.90;;;;;;5085311;28;20120;-55
2023/07/31 16:32:50;;;;;;;5.30;4.53;;;30.30;99.90;;;;;;5035356;28;20575;-55
2023/07/31 16:35:15;;;;;;;4.97;2.05;;;30.30;99.90;;;;;;5082145;28;20051;-55
2023/07/31 16:37:41;;;;;;;4.95;3.25;;;30.30;99.90;;;;;;5083815;28;20039;-55
2023/07/31 16:40:07;;;;;;;3.75;1.77;;;30.30;99.90;;;;;;5083860;28;20472;-54
2023/07/31 16:42:34;;;;;;;3.63;2.00;;;30.20;99.90;;;;;;5043694;28;20460;-52
2023/07/31 16:45:02;;;;;;;4.38;1.80;;;;;;;;;;5083752;28;20034;-53
2023/07/31 16:47:28;;;;;;;4.32;2.42;;;;;;;;;;5084172;28;20020;-53
2023/07/31 16:49:54;;;;;;;4.85;3.60;;;;;;;;;;5083141;28;20028;-53
2023/07/31 16:52:20;;;;;;;3.92;3.42;;;;;;;;;;5078415;28;20372;-54
2023/07/31 16:54:47;;;;;;;4.10;1.98;;;;;;;;;;5082568;28;20479;-55
2023/07/31 16:57:13;;;;;;;3.83;1.92;;;;;;;;;;5087507;28;20028;-54
2023/07/31 16:59:39;;;;;;;3.25;1.80;;;;;;;;;;5079666;28;20028;-54
2023/07/31 17:02:05;;;;;;;3.35;2.20;;;;;;;;;;5074585;28;20116;-54
2023/07/31 17:04:32;;;;;;;4.10;1.85;;;;;;;;;;5077188;28;20102;-56
2023/07/31 17:06:58;;;;;;;4.18;1.85;;;;;;;;;;5086670;28;20103;-55
2023/07/31 17:09:25;;;;;;;3.20;1.90;;;;;;;;;;5050454;28;20047;-54
2023/07/31 17:11:51;;;;;;;3.80;2.03;;;;;;;;;;5086657;28;20559;-53
2023/07/31 17:14:17;;;;;;;2.33;1.75;;;;;;;;;;5087510;28;20024;-54
2023/07/31 17:16:43;;;;;;;5.30;1.80;;;;;;;;;;5084407;28;20036;-52
2023/07/31 17:19:09;;;;;;;4.05;2.00;;;;;;;;;;5038712;28;20075;-54
2023/07/31 17:21:36;;;;;;;4.53;1.98;;;;;;;;;;5057986;28;20043;-57
2023/07/31 17:24:02;;;;;;;8.13;2.55;;;29.40;99.90;;;;;;5082737;28;20395;-53
2023/07/31 17:26:28;;;;;;;2.97;2.08;;;29.10;99.90;;;;;;5064032;28;20100;-54
2023/07/31 17:28:54;;;;;;;3.90;1.98;;;29.00;99.90;;;;;;5085826;28;20043;-53
2023/07/31 17:31:20;;;;;;;6.53;2.00;;;29.00;99.90;;;;;;5081038;28;20032;-55
2023/07/31 17:33:46;;;;;;;4.78;2.28;;;28.90;99.90;;;;;;5080629;28;20479;-53
2023/07/31 17:36:12;;;;;;;3.35;1.85;;;28.80;99.90;;;;;;5079281;28;20037;-53
2023/07/31 17:38:38;;;;;;;4.40;1.98;;;28.80;99.90;;;;;;5084505;28;20434;-55
2023/07/31 17:41:03;;;;;;;4.20;1.70;;;28.80;99.90;;;;;;5067217;28;20044;-54
2023/07/31 17:43:29;;;;;;;3.45;2.00;;;28.70;99.90;;;;;;5090240;28;21067;-54
2023/07/31 17:45:55;;;;;;;7.05;2.00;;;28.70;99.90;;;;;;5080859;28;20384;-52
2023/07/31 17:48:20;;;;;;;8.43;2.63;;;28.70;99.90;;;;;;5081666;28;20030;-53
2023/07/31 17:50:53;;;;;;;8.80;2.78;;;28.60;99.90;;;;;;5082656;28;20494;-56
2023/07/31 17:53:19;;;;;;;5.38;2.53;;;28.50;99.90;;;;;;5081645;28;20060;-53
2023/07/31 17:55:45;;;;;;;3.80;2.20;;;28.40;99.90;;;;;;5026205;28;20110;-53
2023/07/31 17:58:10;;;;;;;3.58;2.35;;;28.30;99.90;;;;;;5057824;28;20032;-54
2023/07/31 18:00:36;;;;;;;7.00;2.30;;;28.20;99.90;;;;;;5051245;28;20033;-54
2023/07/31 18:03:02;;;;;;;4.60;2.50;;;28.10;99.90;;;;;;5043931;28;20095;-54
2023/07/31 18:05:28;;;;;;;3.92;2.40;;;28.00;99.90;;;;;;5028196;28;20092;-55
2023/07/31 18:07:53;;;;;;;5.57;2.70;;;27.80;99.90;;;;;;5034331;28;20098;-53
2023/07/31 18:10:19;;;;;;;3.78;2.50;;;27.70;99.90;;;;;;5034003;28;20040;-56
2023/07/31 18:12:45;;;;;;;6.45;2.20;;;27.60;99.90;;;;;;5057020;28;20384;-53
2023/07/31 18:15:10;;;;;;;4.28;2.78;;;27.50;99.90;;;;;;5052042;28;20093;-55
2023/07/31 18:17:36;;;;;;;4.40;2.38;;;27.40;99.90;;;;;;5056332;28;20020;-54
2023/07/31 18:20:04;;;;;;;7.70;4.13;;;27.30;99.90;;;;;;5055081;28;20405;-53
2023/07/31 18:22:30;;;;;;;16.50;5.60;;;27.30;99.90;;;;;;5006015;28;20045;-53
2023/07/31 18:24:56;;;;;;;15.75;6.05;;;27.20;99.90;;;;;;5026536;28;20028;-53
2023/07/31 18:27:22;;;;;;;10.40;5.97;;;27.10;99.90;;;;;;5035189;28;20032;-53
2023/07/31 18:29:48;;;;;;;7.20;3.83;;;27.00;99.90;;;;;;5065864;28;20048;-55
2023/07/31 18:32:13;;;;;;;5.47;3.10;;;26.90;99.90;;;;;;5084967;28;20486;-55
2023/07/31 18:34:39;;;;;;;4.78;2.50;;;26.80;99.90;;;;;;5062604;28;20041;-53
2023/07/31 18:37:05;;;;;;;7.05;3.70;;;26.70;99.90;;;;;;5086860;28;20035;-53
2023/07/31 18:39:31;;;;;;;9.02;3.17;;;26.70;99.90;;;;;;5080199;28;20103;-55
2023/07/31 18:41:57;;;;;;;5.82;3.58;;;26.50;99.90;;;;;;5078685;28;20039;-53
2023/07/31 18:44:23;;;;;;;3.97;2.60;;;26.50;99.90;;;;;;5081195;28;20076;-53
2023/07/31 18:46:49;;;;;;;4.78;3.17;;;26.40;99.90;;;;;;5080601;28;20115;-54
2023/07/31 18:49:14;;;;;;;4.43;2.70;;;26.30;99.90;;;;;;5061361;28;20040;-53
2023/07/31 18:51:41;;;;;;;6.57;3.10;;;26.20;99.90;;;;;;5078127;28;20025;-53
2023/07/31 18:54:07;;;;;;;7.35;3.72;;;26.10;99.90;;;;;;5053239;28;20043;-53
2023/07/31 18:56:34;;;;;;;7.13;3.35;;;26.00;99.90;;;;;;5065792;28;20139;-54
2023/07/31 18:59:01;;;;;;;6.45;4.07;;;25.90;99.90;;;;;;5078671;28;20093;-55
2023/07/31 19:01:26;;;;;;;8.02;3.83;;;25.80;99.90;;;;;;5059451;28;20036;-55
2023/07/31 19:03:52;;;;;;;4.60;3.47;;;25.80;99.90;;;;;;5078919;28;20519;-55
2023/07/31 19:06:18;;;;;;;5.28;2.83;;;25.70;99.90;;;;;;5050776;28;20439;-55
2023/07/31 19:08:44;;;;;;;5.72;2.72;;;25.60;99.90;;;;;;5048933;28;20041;-53
2023/07/31 19:11:12;;;;;;;3.75;2.58;;;25.60;99.90;;;;;;5055724;28;20044;-55
2023/07/31 19:13:41;;;;;;;3.42;2.17;;;25.60;99.90;;;;;;5050625;28;20029;-54
2023/07/31 19:16:08;;;;;;;3.85;2.50;;;;;;;;;;5015535;28;20041;-56
2023/07/31 19:18:33;;;;;;;4.75;2.25;;;25.50;99.90;;;;;;5058039;28;20175;-55
2023/07/31 19:21:00;;;;;;;4.35;2.33;;;25.40;99.90;;;;;;5057327;28;20124;-56
2023/07/31 19:23:25;;;;;;;3.75;2.22;;;25.30;99.90;;;;;;5048653;28;20384;-56
2023/07/31 19:25:51;;;;;;;7.45;2.45;;;25.20;99.90;;;;;;5059923;28;20036;-54
2023/07/31 19:28:18;;;;;;;3.00;2.33;;;25.10;99.90;;;;;;5055495;28;20021;-55
2023/07/31 19:30:43;;;;;;;4.90;2.03;;;25.00;99.90;;;;;;5056777;28;20033;-57
2023/07/31 19:33:09;;;;;;;5.85;2.63;;;25.10;99.90;;;;;;5010283;28;20100;-55
2023/07/31 19:35:35;;;;;;;5.05;2.83;;;25.00;99.90;;;;;;5062192;28;20033;-57
2023/07/31 19:38:01;;;;;;;4.53;2.42;;;24.90;99.90;;;;;;5078134;28;20032;-54
2023/07/31 19:40:26;;;;;;;8.00;2.55;;;24.90;99.90;;;;;;5083066;28;20107;-55
2023/07/31 19:42:54;;;;;;;7.25;2.45;;;24.90;99.90;;;;;;5079454;28;20108;-53
2023/07/31 19:45:20;;;;;;;5.30;2.55;;;;;;;;;;5083902;28;20518;-58
2023/07/31 19:47:46;;;;;;;6.20;3.40;;;;;;;;;;5081416;28;20487;-57
2023/07/31 19:50:12;;;;;;;7.28;2.83;;;;;;;;;;5061761;28;20032;-53
2023/07/31 19:52:40;;;;;;;5.82;2.33;;;;;;;;;;5080288;28;20035;-57
2023/07/31 19:55:06;;;;;;;6.97;2.38;;;;;;;;;;5083440;28;20043;-55
2023/07/31 19:57:32;;;;;;;5.93;3.33;;;;;;;;;;5070790;28;20028;-56
2023/07/31 19:59:58;;;;;;;6.60;2.92;;;;;;;;;;5082440;28;20033;-53
2023/07/31 20:02:24;;;;;;;5.82;2.60;;;;;;;;;;5083552;28;20027;-54
2023/07/31 20:04:50;;;;;;;14.32;3.25;;;;;;;;;;5061678;28;20049;-53
2023/07/31 20:07:17;;;;;;;4.90;3.13;;;;;;;;;;5058921;28;20079;-55
2023/07/31 20:09:43;;;;;;;5.93;3.05;;;;;;;;;;5058795;28;20060;-54
2023/07/31 20:12:09;;;;;;;6.75;3.00;;;;;;;;;;5060552;28;20021;-52
2023/07/31 20:14:35;;;;;;;4.40;3.15;;;;;;;;;;5058663;28;20033;-56
2023/07/31 20:17:01;;;;;;;8.13;3.35;;;;;;;;;;5059036;28;20035;-56
2023/07/31 20:19:27;;;;;;;11.63;3.78;;;;;;;;;;5043325;28;20168;-57
2023/07/31 20:21:55;;;;;;;9.85;2.95;;;;;;;;;;5060574;28;20033;-57
2023/07/31 20:24:22;;;;;;;6.43;2.90;;;;;;;;;;5058651;28;20063;-55
2023/07/31 20:26:48;;;;;;;6.90;3.03;;;;;;;;;;5065170;28;20251;-55
2023/07/31 20:29:14;;;;;;;12.95;6.30;;;;;;;;;;5062141;28;20028;-55
2023/07/31 20:31:40;;;;;;;10.20;5.05;;;23.50;99.90;;;;;;5064331;28;20025;-56
2023/07/31 20:34:07;;;;;;;11.55;6.90;;;;;;;;;;5057833;28;20051;-54
2023/07/31 20:36:35;;;;;;;12.18;6.55;;;23.20;99.90;;;;;;5076643;28;20048;-53
2023/07/31 20:39:01;;;;;;;13.00;6.40;;;23.30;99.90;;;;;;5083669;28;20043;-51
2023/07/31 20:41:27;;;;;;;15.55;7.95;;;23.30;99.90;;;;;;5056859;28;20040;-51
2023/07/31 20:43:53;;;;;;;13.48;5.95;;;;;;;;;;5083404;28;20032;-53
2023/07/31 20:46:19;;;;;;;13.35;6.35;;;22.80;99.90;;;;;;5081656;28;20073;-52
2023/07/31 20:48:44;;;;;;;15.85;6.80;;;22.80;99.90;;;;;;5084256;28;20110;-52
2023/07/31 20:51:10;;;;;;;9.98;5.47;;;;;;;;;;5059886;28;20036;-52
2023/07/31 20:53:36;;;;;;;14.13;5.57;;;;;;;;;;5079143;28;20024;-51
2023/07/31 20:56:02;;;;;;;11.20;5.72;;;22.20;99.90;;;;;;5078910;28;20044;-53
2023/07/31 20:58:28;;;;;;;30.58;15.60;;;;;;;;;;5070595;28;20033;-53
2023/07/31 21:00:54;;;;;;;9.80;5.57;;;21.90;99.90;;;;;;5081841;28;20501;-54
2023/07/31 21:03:20;;;;;;;13.32;6.18;;;;;;;;;;5085320;28;20028;-53
2023/07/31 21:05:50;;;;;;;14.82;6.18;;;;;;;;;;5078170;28;20063;-52
2023/07/31 21:08:16;;;;;;;11.70;5.63;;;22.30;99.90;;;;;;5081812;28;20479;-52
2023/07/31 21:10:42;;;;;;;34.20;13.60;;;;;;;;;;5076900;28;20031;-53
2023/07/31 21:13:08;;;;;;;10.45;5.55;;;;;;;;;;5080514;28;20027;-53
2023/07/31 21:15:38;;;;;;;9.80;5.78;;;21.60;99.90;;;;;;5079607;28;20119;-53
2023/07/31 21:18:04;;;;;;;7.90;4.07;;;21.20;99.90;;;;;;5054032;28;20433;-54
2023/07/31 21:20:30;;;;;;;7.85;3.97;;;;;;;;;;5086566;28;20028;-52
2023/07/31 21:22:55;;;;;;;9.05;3.35;;;20.70;99.90;;;;;;5079250;28;20020;-55
2023/07/31 21:25:21;;;;;;;7.03;4.10;;;;;;;;;;5080061;28;20369;-53
2023/07/31 21:27:47;;;;;;;7.32;3.45;;;20.40;99.90;;;;;;5088814;28;20021;-53
2023/07/31 21:30:13;;;;;;;7.63;3.45;;;;;;;;;;5046114;28;20752;-54
2023/07/31 21:32:39;;;;;;;6.57;3.92;;;20.10;99.90;;;;;;5085563;28;20057;-55
2023/07/31 21:35:05;;;;;;;5.05;3.30;;;19.90;99.90;;;;;;5056679;28;20402;-54
2023/07/31 21:37:31;;;;;;;5.55;3.60;;;19.90;99.90;;;;;;5064569;28;20502;-54
2023/07/31 21:39:56;;;;;;;5.72;3.97;;;19.90;99.90;;;;;;5068585;28;20039;-52
2023/07/31 21:42:22;;;;;;;5.90;3.90;;;19.90;99.90;;;;;;5078609;28;20039;-53
2023/07/31 21:44:48;;;;;;;5.93;3.45;;;20.10;99.90;;;;;;5058069;28;20052;-51
2023/07/31 21:47:13;;;;;;;6.70;3.58;;;20.30;99.90;;;;;;5055160;28;20036;-53
2023/07/31 21:49:39;;;;;;;7.82;4.30;;;20.60;99.90;;;;;;5090925;28;20115;-53
2023/07/31 21:52:05;;;;;;;7.85;3.90;;;21.00;99.90;;;;;;5087223;28;20031;-51
2023/07/31 21:54:31;;;;;;;6.40;3.88;;;21.20;99.90;;;;;;5064312;28;20028;-53
2023/07/31 21:56:56;;;;;;;6.38;3.42;;;21.30;99.90;;;;;;5061657;28;20037;-51
2023/07/31 21:59:22;;;;;;;6.22;4.00;;;;;;;;;;5086043;28;20103;-54
2023/07/31 22:01:48;;;;;;;10.93;4.78;;;20.80;99.90;;;;;;5092809;28;20028;-52
2023/07/31 22:04:14;;;;;;;6.57;3.85;;;20.50;99.90;;;;;;5053484;28;20102;-53
2023/07/31 22:06:40;;;;;;;8.00;3.78;;;20.40;99.90;;;;;;5072767;28;20040;-52
2023/07/31 22:09:05;;;;;;;6.25;4.10;;;20.30;99.90;;;;;;5053711;28;20036;-51
2023/07/31 22:11:31;;;;;;;8.93;4.28;;;20.30;99.90;;;;;;5072232;28;20033;-51
2023/07/31 22:13:57;;;;;;;7.30;3.53;;;20.30;99.90;;;;;;5072512;28;20027;-52
2023/07/31 22:16:22;;;;;;;7.40;3.75;;;20.40;99.90;;;;;;5072314;28;20040;-51
2023/07/31 22:18:48;;;;;;;7.22;3.45;;;20.50;99.90;;;;;;5053602;28;20049;-51
2023/07/31 22:21:18;;;;;;;5.38;3.58;;;20.40;99.90;;;;;;5072506;28;20021;-51
2023/07/31 22:23:43;;;;;;;7.22;3.53;;;20.40;99.90;;;;;;5072331;28;20383;-52
2023/07/31 22:26:09;;;;;;;5.82;2.95;;;20.20;99.90;;;;;;5072211;28;20021;-52
2023/07/31 22:28:35;;;;;;;7.70;3.78;;;20.20;99.90;;;;;;5072656;28;20040;-52
2023/07/31 22:31:01;;;;;;;7.65;4.10;;;20.10;99.90;;;;;;5072477;28;20032;-51
2023/07/31 22:33:26;;;;;;;6.25;3.47;;;20.10;99.90;;;;;;5053155;28;20036;-53
2023/07/31 22:35:53;;;;;;;10.63;3.25;;;;;;;;;;5072043;28;20430;-52
2023/07/31 22:38:19;;;;;;;5.32;2.95;;;19.80;99.90;;;;;;5071986;28;20029;-51
2023/07/31 22:40:45;;;;;;;5.60;3.42;;;19.60;99.90;;;;;;5072018;28;20024;-52
2023/07/31 22:43:11;;;;;;;8.20;3.50;;;19.60;99.90;;;;;;5019858;28;20043;-51
2023/07/31 22:45:37;;;;;;;5.65;3.22;;;19.50;99.90;;;;;;5072193;28;20021;-53
2023/07/31 22:48:03;;;;;;;5.18;3.58;;;19.50;99.90;;;;;;5072256;28;20074;-52
2023/07/31 22:50:28;;;;;;;5.72;3.45;;;19.60;99.90;;;;;;5052923;28;20037;-53
2023/07/31 22:52:55;;;;;;;4.53;3.42;;;19.70;99.90;;;;;;5070849;28;20464;-52
2023/07/31 22:55:20;;;;;;;4.95;3.13;;;19.70;99.90;;;;;;5052975;28;20040;-53
2023/07/31 22:57:46;;;;;;;5.95;3.83;;;19.80;99.90;;;;;;5071778;28;20028;-51
2023/07/31 23:00:12;;;;;;;6.63;3.47;;;19.70;99.90;;;;;;5071800;28;20569;-53
2023/07/31 23:02:38;;;;;;;6.88;4.03;;;19.70;99.90;;;;;;5052993;28;20063;-52
2023/07/31 23:05:04;;;;;;;5.80;3.60;;;19.60;99.90;;;;;;5052832;28;20084;-52
2023/07/31 23:07:30;;;;;;;6.15;3.63;;;19.40;99.90;;;;;;5071654;28;20032;-53
2023/07/31 23:09:56;;;;;;;6.55;3.42;;;19.40;99.90;;;;;;5072197;28;20032;-52
2023/07/31 23:12:22;;;;;;;4.43;3.30;;;19.20;99.90;;;;;;5070449;28;20032;-52
2023/07/31 23:14:47;;;;;;;4.95;3.13;;;19.30;99.90;;;;;;5052755;28;20083;-51
2023/07/31 23:17:13;;;;;;;6.68;3.83;;;19.20;99.90;;;;;;5071664;28;20045;-51
2023/07/31 23:19:39;;;;;;;7.07;3.30;;;19.30;99.90;;;;;;5052617;28;20032;-52
2023/07/31 23:22:05;;;;;;;6.30;3.47;;;19.10;99.90;;;;;;5071673;28;20121;-53
2023/07/31 23:24:31;;;;;;;3.72;2.80;;;;;;;;;;5052657;28;20045;-52
2023/07/31 23:26:57;;;;;;;6.22;3.33;;;19.00;99.90;;;;;;5071497;28;20063;-53
2023/07/31 23:29:23;;;;;;;4.80;3.60;;;;;;;;;;5052675;28;20118;-53
2023/07/31 23:31:49;;;;;;;7.70;3.53;;;19.10;99.90;;;;;;5071427;28;20025;-51
2023/07/31 23:34:15;;;;;;;6.35;3.35;;;;;;;;;;5071376;28;20032;-51
2023/07/31 23:36:42;;;;;;;7.57;3.22;;;18.80;99.90;;;;;;5071825;28;20032;-53
2023/07/31 23:39:07;;;;;;;6.55;3.20;;;18.60;99.90;;;;;;5071659;28;20097;-51
2023/07/31 23:41:33;;;;;;;5.80;3.10;;;18.60;99.90;;;;;;5032000;28;20041;-52
2023/07/31 23:43:59;;;;;;;6.63;3.55;;;18.40;99.90;;;;;;5048941;28;20598;-52
2023/07/31 23:46:25;;;;;;;4.63;2.83;;;18.60;99.90;;;;;;5048923;28;20041;-52
2023/07/31 23:48:51;;;;;;;6.80;3.67;;;18.60;99.90;;;;;;5032164;28;20083;-53
2023/07/31 23:51:16;;;;;;;6.70;3.63;;;18.50;99.90;;;;;;5048750;28;20033;-52
2023/07/31 23:53:42;;;;;;;4.50;2.88;;;18.90;99.90;;;;;;5048853;28;20070;-53
2023/07/31 23:56:08;;;;;;;6.55;4.13;;;19.00;99.90;;;;;;5048792;28;20412;-53
2023/07/31 23:58:36;;;;;;;7.25;3.58;;;19.10;99.90;;;;;;5048916;28;20029;-51
